createdAt,value
2019-04-30T00:02:06.544Z,7.10
2019-04-30T00:04:40.226Z,7.10
2019-04-30T00:07:10.165Z,7.10
2019-04-30T00:09:37.574Z,7.20
2019-04-30T00:12:06.072Z,7.20
2019-04-30T00:14:39.916Z,7.30
2019-04-30T00:17:06.313Z,7.30
2019-04-30T00:19:35.922Z,7.30
2019-04-30T00:22:05.718Z,7.40
2019-04-30T00:24:35.476Z,7.40
2019-04-30T00:27:05.162Z,7.20
2019-04-30T00:29:35.506Z,7.10
2019-04-30T00:32:06.694Z,7.20
2019-04-30T00:34:35.875Z,7.00
2019-04-30T00:37:07.268Z,7.00
2019-04-30T00:39:35.563Z,6.80
2019-04-30T00:42:04.918Z,6.90
2019-04-30T00:44:33.449Z,6.90
2019-04-30T00:47:04.970Z,6.80
2019-04-30T00:49:32.097Z,6.70
2019-04-30T00:52:00.522Z,6.60
2019-04-30T00:54:30.797Z,6.60
2019-04-30T00:57:03.782Z,6.60
2019-04-30T00:59:29.246Z,6.40
2019-04-30T01:02:20.109Z,6.30
2019-04-30T01:04:48.919Z,6.20
2019-04-30T01:07:17.399Z,6.20
2019-04-30T01:09:49.529Z,6.20
2019-04-30T01:12:19.197Z,6.20
2019-04-30T01:14:46.284Z,6.20
2019-04-30T01:17:14.706Z,6.10
2019-04-30T01:19:45.918Z,6.20
2019-04-30T01:22:13.349Z,6.20
2019-04-30T01:24:41.786Z,6.10
2019-04-30T01:27:10.760Z,6.10
2019-04-30T01:29:44.045Z,6.10
2019-04-30T01:32:12.212Z,6.00
2019-04-30T01:34:39.817Z,6.00
2019-04-30T01:37:09.759Z,6.10
2019-04-30T01:39:39.099Z,6.10
2019-04-30T01:42:11.219Z,6.00
2019-04-30T01:44:39.181Z,6.00
2019-04-30T01:47:08.954Z,5.90
2019-04-30T01:49:42.767Z,5.80
2019-04-30T01:52:09.494Z,5.80
2019-04-30T01:54:39.126Z,5.80
2019-04-30T01:57:10.866Z,5.80
2019-04-30T01:59:58.303Z,5.90
2019-04-30T02:02:28.835Z,5.90
2019-04-30T02:04:59.040Z,5.70
2019-04-30T02:07:28.767Z,5.90
2019-04-30T02:09:58.784Z,5.80
2019-04-30T02:12:29.512Z,6.00
2019-04-30T02:14:59.498Z,5.90
2019-04-30T02:17:29.208Z,5.90
2019-04-30T02:19:59.274Z,5.90
2019-04-30T02:22:30.890Z,5.80
2019-04-30T02:24:58.521Z,5.70
2019-04-30T02:27:29.300Z,5.70
2019-04-30T02:29:59.386Z,5.80
2019-04-30T02:32:30.200Z,5.70
2019-04-30T02:34:59.817Z,5.70
2019-04-30T02:37:30.194Z,5.50
2019-04-30T02:40:00.787Z,5.70
2019-04-30T02:42:29.935Z,5.80
2019-04-30T02:45:00.146Z,5.80
2019-04-30T02:47:32.091Z,5.80
2019-04-30T02:50:15.381Z,5.70
2019-04-30T02:52:35.011Z,5.60
2019-04-30T02:55:04.572Z,5.50
2019-04-30T02:57:33.006Z,5.50
2019-04-30T03:00:05.770Z,5.40
2019-04-30T03:02:34.395Z,5.50
2019-04-30T03:05:02.942Z,5.60
2019-04-30T03:07:31.378Z,5.60
2019-04-30T03:10:00.049Z,5.70
2019-04-30T03:12:33.114Z,5.70
2019-04-30T03:15:00.440Z,5.50
2019-04-30T03:17:30.742Z,5.60
2019-04-30T03:20:06.757Z,5.50
2019-04-30T03:22:35.203Z,5.70
2019-04-30T03:25:04.556Z,5.70
2019-04-30T03:27:35.639Z,5.70
2019-04-30T03:30:06.680Z,5.70
2019-04-30T03:32:36.663Z,5.60
2019-04-30T03:35:05.851Z,5.50
2019-04-30T03:37:34.267Z,5.40
2019-04-30T03:40:02.935Z,5.50
2019-04-30T03:42:31.363Z,5.40
2019-04-30T03:44:59.791Z,5.50
2019-04-30T03:47:29.987Z,5.40
2019-04-30T03:49:59.978Z,5.20
2019-04-30T03:52:29.152Z,5.20
2019-04-30T03:55:02.436Z,5.00
2019-04-30T03:57:30.233Z,4.90
2019-04-30T03:59:59.455Z,4.90
2019-04-30T04:02:32.265Z,4.80
2019-04-30T04:05:02.345Z,4.80
2019-04-30T04:07:41.248Z,4.80
2019-04-30T04:10:20.067Z,4.80
2019-04-30T04:12:49.875Z,4.70
2019-04-30T04:15:19.983Z,4.70
2019-04-30T04:17:50.410Z,4.70
2019-04-30T04:20:20.268Z,4.70
2019-04-30T04:22:49.698Z,4.70
2019-04-30T04:25:20.428Z,4.70
2019-04-30T04:27:50.890Z,4.80
2019-04-30T04:30:20.394Z,4.80
2019-04-30T04:32:50.129Z,4.80
2019-04-30T04:35:19.721Z,4.90
2019-04-30T04:37:49.540Z,4.90
2019-04-30T04:40:20.977Z,4.90
2019-04-30T04:42:49.373Z,4.90
2019-04-30T04:45:19.853Z,4.90
2019-04-30T04:47:50.397Z,4.90
2019-04-30T04:50:20.121Z,5.00
2019-04-30T04:52:49.575Z,5.00
2019-04-30T04:55:21.787Z,5.20
2019-04-30T04:57:50.074Z,5.20
2019-04-30T05:00:19.448Z,5.20
2019-04-30T05:02:49.918Z,5.30
2019-04-30T05:05:19.417Z,5.30
2019-04-30T05:07:48.610Z,5.30
2019-04-30T05:10:19.075Z,5.40
2019-04-30T05:12:50.645Z,5.50
2019-04-30T05:15:19.313Z,5.50
2019-04-30T05:17:49.272Z,5.60
2019-04-30T05:20:19.457Z,5.70
2019-04-30T05:22:48.873Z,5.80
2019-04-30T05:25:18.684Z,5.90
2019-04-30T05:27:48.855Z,6.00
2019-04-30T05:30:19.353Z,6.00
2019-04-30T05:32:50.915Z,6.00
2019-04-30T05:35:19.448Z,6.10
2019-04-30T05:37:49.528Z,6.10
2019-04-30T05:40:18.826Z,6.20
2019-04-30T05:42:49.450Z,6.30
2019-04-30T05:45:19.252Z,6.40
2019-04-30T05:47:50.292Z,6.40
2019-04-30T05:50:19.805Z,6.50
2019-04-30T05:52:49.328Z,6.70
2019-04-30T05:55:19.585Z,6.80
2019-04-30T05:57:56.064Z,6.90
2019-04-30T06:00:19.098Z,7.00
2019-04-30T06:02:49.543Z,7.20
2019-04-30T06:05:18.811Z,7.10
2019-04-30T06:07:51.658Z,7.20
2019-04-30T06:10:21.868Z,7.30
2019-04-30T06:12:54.844Z,7.40
2019-04-30T06:15:29.094Z,7.60
2019-04-30T06:18:01.092Z,7.60
2019-04-30T06:20:28.779Z,7.60
2019-04-30T06:22:59.539Z,7.70
2019-04-30T06:25:33.655Z,7.70
2019-04-30T06:27:59.162Z,7.80
2019-04-30T06:30:29.702Z,7.80
2019-04-30T06:32:59.307Z,8.00
2019-04-30T06:35:29.435Z,8.00
2019-04-30T06:37:58.939Z,8.10
2019-04-30T06:40:29.378Z,8.20
2019-04-30T06:43:00.513Z,8.30
2019-04-30T06:45:29.635Z,8.40
2019-04-30T06:48:00.156Z,8.50
2019-04-30T06:50:29.316Z,8.60
2019-04-30T06:53:01.011Z,8.80
2019-04-30T06:55:30.644Z,8.80
2019-04-30T06:58:11.553Z,8.90
2019-04-30T07:00:35.564Z,9.00
2019-04-30T07:03:05.157Z,9.10
2019-04-30T07:05:33.576Z,9.20
2019-04-30T07:08:19.927Z,9.30
2019-04-30T07:10:55.674Z,9.40
2019-04-30T07:13:21.893Z,9.60
2019-04-30T07:15:50.319Z,9.70
2019-04-30T07:18:19.038Z,10.00
2019-04-30T07:20:48.660Z,10.20
2019-04-30T07:23:18.826Z,10.40
2019-04-30T07:25:49.319Z,10.60
2019-04-30T07:28:19.084Z,10.80
2019-04-30T07:30:49.353Z,11.00
2019-04-30T07:33:20.781Z,11.00
2019-04-30T07:35:49.862Z,11.10
2019-04-30T07:38:19.349Z,11.30
2019-04-30T07:40:49.310Z,11.50
2019-04-30T07:43:19.031Z,11.70
2019-04-30T07:45:49.605Z,11.80
2019-04-30T07:48:21.064Z,11.80
2019-04-30T07:50:51.495Z,12.00
2019-04-30T07:53:18.766Z,12.20
2019-04-30T07:55:49.432Z,12.40
2019-04-30T07:58:20.242Z,12.50
2019-04-30T08:00:50.348Z,12.60
2019-04-30T08:03:36.041Z,12.80
2019-04-30T08:06:05.686Z,12.90
2019-04-30T08:08:34.208Z,13.20
2019-04-30T08:11:02.705Z,13.30
2019-04-30T08:13:32.718Z,13.50
2019-04-30T08:16:01.370Z,13.60
2019-04-30T08:18:29.787Z,13.80
2019-04-30T08:20:59.047Z,14.00
2019-04-30T08:23:34.818Z,14.10
2019-04-30T08:25:58.793Z,14.00
2019-04-30T08:28:30.095Z,14.20
2019-04-30T08:30:58.979Z,14.60
2019-04-30T08:33:29.205Z,14.30
2019-04-30T08:36:00.757Z,14.20
2019-04-30T08:38:29.946Z,14.30
2019-04-30T08:41:00.693Z,14.60
2019-04-30T08:43:29.233Z,14.70
2019-04-30T08:45:59.470Z,15.00
2019-04-30T08:48:43.718Z,14.90
2019-04-30T08:50:59.305Z,15.00
2019-04-30T08:53:32.893Z,15.40
2019-04-30T08:55:59.104Z,15.50
2019-04-30T08:58:29.216Z,15.60
2019-04-30T09:00:58.799Z,15.70
2019-04-30T09:03:29.500Z,15.80
2019-04-30T09:05:59.164Z,15.90
2019-04-30T09:08:29.463Z,15.90
2019-04-30T09:10:59.542Z,16.20
2019-04-30T09:13:28.659Z,16.30
2019-04-30T09:15:59.181Z,16.50
2019-04-30T09:18:29.172Z,16.70
2019-04-30T09:21:04.150Z,16.60
2019-04-30T09:23:43.011Z,16.60
2019-04-30T09:25:58.629Z,16.80
2019-04-30T09:28:27.137Z,17.20
2019-04-30T09:30:55.577Z,17.30
2019-04-30T09:33:24.064Z,17.40
2019-04-30T09:35:52.499Z,17.60
2019-04-30T09:38:20.931Z,17.60
2019-04-30T09:40:50.771Z,17.70
2019-04-30T09:43:19.275Z,18.10
2019-04-30T09:45:49.560Z,18.10
2019-04-30T09:48:18.976Z,18.30
2019-04-30T09:50:49.688Z,18.20
2019-04-30T09:53:19.592Z,18.30
2019-04-30T09:55:49.637Z,18.40
2019-04-30T09:58:21.162Z,18.90
2019-04-30T10:00:50.183Z,19.10
2019-04-30T10:03:20.145Z,19.00
2019-04-30T10:05:49.208Z,19.20
2019-04-30T10:08:20.245Z,19.40
2019-04-30T10:10:49.425Z,19.50
2019-04-30T10:13:17.858Z,19.40
2019-04-30T10:16:05.564Z,19.40
2019-04-30T10:18:33.989Z,19.40
2019-04-30T10:21:02.430Z,19.70
2019-04-30T10:23:30.860Z,19.90
2019-04-30T10:25:59.447Z,20.20
2019-04-30T10:28:27.883Z,20.50
2019-04-30T10:30:56.313Z,20.50
2019-04-30T10:33:24.734Z,20.50
2019-04-30T10:35:53.158Z,20.30
2019-04-30T10:38:21.588Z,20.10
2019-04-30T10:40:50.100Z,20.50
2019-04-30T10:43:19.788Z,20.80
2019-04-30T10:45:48.635Z,21.00
2019-04-30T10:48:17.231Z,21.20
2019-04-30T10:50:45.671Z,21.40
2019-04-30T10:53:14.136Z,21.50
2019-04-30T10:55:42.559Z,21.60
2019-04-30T10:58:10.997Z,21.60
2019-04-30T11:00:41.710Z,21.30
2019-04-30T11:03:19.515Z,21.10
2019-04-30T11:05:41.316Z,21.20
2019-04-30T11:08:09.894Z,21.50
2019-04-30T11:10:39.921Z,21.50
2019-04-30T11:13:08.523Z,21.60
2019-04-30T11:15:39.281Z,21.70
2019-04-30T11:18:07.420Z,21.60
2019-04-30T11:20:36.242Z,21.40
2019-04-30T11:23:14.187Z,21.60
2019-04-30T11:25:35.872Z,21.70
2019-04-30T11:28:05.667Z,21.60
2019-04-30T11:30:34.743Z,21.70
2019-04-30T11:33:03.402Z,21.50
2019-04-30T11:35:32.021Z,21.50
2019-04-30T11:38:00.458Z,22.00
2019-04-30T11:40:37.163Z,22.20
2019-04-30T11:43:00.763Z,22.50
2019-04-30T11:45:40.871Z,22.60
2019-04-30T11:48:09.320Z,22.50
2019-04-30T11:50:39.376Z,22.60
2019-04-30T11:53:22.620Z,22.80
2019-04-30T11:55:39.021Z,23.00
2019-04-30T11:58:07.517Z,23.30
2019-04-30T12:00:39.401Z,23.30
2019-04-30T12:03:09.050Z,23.70
2019-04-30T12:05:38.915Z,23.60
2019-04-30T12:08:11.958Z,23.50
2019-04-30T12:10:42.024Z,23.40
2019-04-30T12:13:28.316Z,23.20
2019-04-30T12:15:58.844Z,23.20
2019-04-30T12:18:27.213Z,23.00
2019-04-30T12:20:55.703Z,23.10
2019-04-30T12:23:24.199Z,23.40
2019-04-30T12:25:52.778Z,23.60
2019-04-30T12:28:21.253Z,23.40
2019-04-30T12:30:49.765Z,23.50
2019-04-30T12:33:19.200Z,23.70
2019-04-30T12:35:49.152Z,23.90
2019-04-30T12:38:19.132Z,24.20
2019-04-30T12:40:47.798Z,24.30
2019-04-30T12:43:16.227Z,24.30
2019-04-30T12:45:44.671Z,24.40
2019-04-30T12:48:23.468Z,24.00
2019-04-30T12:51:02.259Z,24.20
2019-04-30T12:53:50.298Z,24.30
2019-04-30T12:56:26.700Z,24.10
2019-04-30T12:58:50.536Z,24.40
2019-04-30T13:01:19.036Z,24.40
2019-04-30T13:03:56.699Z,24.40
2019-04-30T13:06:18.224Z,24.70
2019-04-30T13:08:51.389Z,24.60
2019-04-30T13:11:18.293Z,24.10
2019-04-30T13:13:49.891Z,23.90
2019-04-30T13:16:19.402Z,24.10
2019-04-30T13:18:49.397Z,24.00
2019-04-30T13:21:18.451Z,24.10
2019-04-30T13:23:47.089Z,24.30
2019-04-30T13:26:15.605Z,24.10
2019-04-30T13:28:45.722Z,23.90
2019-04-30T13:31:14.215Z,23.70
2019-04-30T13:34:01.415Z,23.70
2019-04-30T13:36:30.179Z,23.70
2019-04-30T13:39:16.669Z,23.30
2019-04-30T13:41:46.780Z,22.90
2019-04-30T13:44:16.392Z,22.90
2019-04-30T13:46:44.845Z,22.40
2019-04-30T13:49:13.267Z,21.90
2019-04-30T13:51:43.016Z,21.70
2019-04-30T13:54:14.311Z,21.60
2019-04-30T13:56:42.750Z,21.70
2019-04-30T13:59:11.244Z,21.50
2019-04-30T14:01:39.679Z,21.60
2019-04-30T14:04:16.875Z,21.60
2019-04-30T14:06:49.673Z,21.70
2019-04-30T14:09:28.643Z,22.00
2019-04-30T14:11:58.962Z,22.30
2019-04-30T14:14:29.228Z,22.30
2019-04-30T14:16:58.702Z,22.60
2019-04-30T14:19:29.551Z,22.70
2019-04-30T14:21:59.615Z,22.70
2019-04-30T14:24:28.491Z,22.60
2019-04-30T14:26:59.727Z,22.60
2019-04-30T14:29:30.119Z,22.60
2019-04-30T14:31:58.831Z,22.60
2019-04-30T14:34:28.621Z,22.40
2019-04-30T14:36:59.177Z,22.40
2019-04-30T14:39:29.087Z,22.40
2019-04-30T14:41:59.745Z,22.30
2019-04-30T14:44:32.648Z,22.20
2019-04-30T14:47:03.478Z,22.20
2019-04-30T14:49:36.730Z,22.40
2019-04-30T14:52:05.660Z,22.30
2019-04-30T14:54:53.949Z,21.90
2019-04-30T14:57:33.219Z,22.10
2019-04-30T15:00:21.424Z,22.10
2019-04-30T15:02:51.487Z,22.20
2019-04-30T15:05:20.035Z,22.40
2019-04-30T15:07:48.480Z,22.50
2019-04-30T15:10:16.937Z,22.30
2019-04-30T15:12:45.379Z,22.20
2019-04-30T15:15:14.188Z,22.20
2019-04-30T15:17:42.863Z,21.70
2019-04-30T15:20:11.625Z,21.50
2019-04-30T15:22:41.712Z,21.40
2019-04-30T15:25:10.208Z,21.40
2019-04-30T15:27:46.608Z,21.50
2019-04-30T15:30:09.203Z,21.80
2019-04-30T15:32:39.634Z,21.90
2019-04-30T15:35:08.846Z,21.80
2019-04-30T15:37:39.271Z,21.70
2019-04-30T15:40:09.121Z,21.80
2019-04-30T15:42:39.284Z,21.90
2019-04-30T15:45:09.306Z,22.00
2019-04-30T15:47:38.749Z,22.20
2019-04-30T15:50:09.652Z,22.20
2019-04-30T15:52:38.738Z,22.30
2019-04-30T15:55:09.224Z,22.20
2019-04-30T15:57:39.432Z,22.30
2019-04-30T16:00:08.513Z,22.20
2019-04-30T16:02:38.819Z,22.10
2019-04-30T16:05:17.851Z,22.20
2019-04-30T16:07:53.842Z,22.00
2019-04-30T16:10:23.911Z,21.80
2019-04-30T16:12:53.974Z,21.70
2019-04-30T16:15:22.418Z,21.60
2019-04-30T16:17:55.266Z,21.40
2019-04-30T16:20:23.695Z,21.30
2019-04-30T16:22:52.123Z,21.30
2019-04-30T16:25:20.558Z,21.30
2019-04-30T16:27:49.152Z,21.30
2019-04-30T16:30:19.579Z,21.20
2019-04-30T16:32:50.474Z,21.20
2019-04-30T16:35:19.688Z,21.20
2019-04-30T16:37:49.638Z,21.20
2019-04-30T16:40:19.024Z,21.00
2019-04-30T16:42:48.965Z,20.90
2019-04-30T16:45:19.424Z,20.80
2019-04-30T16:47:47.923Z,20.60
2019-04-30T16:50:16.500Z,20.50
2019-04-30T16:52:44.924Z,20.40
2019-04-30T16:55:13.424Z,20.00
2019-04-30T16:57:41.850Z,19.90
2019-04-30T17:00:12.984Z,19.90
2019-04-30T17:02:43.045Z,19.80
2019-04-30T17:05:13.564Z,19.70
2019-04-30T17:07:43.624Z,19.70
2019-04-30T17:10:19.840Z,19.70
2019-04-30T17:13:01.852Z,19.60
2019-04-30T17:15:31.988Z,19.60
2019-04-30T17:18:00.421Z,19.40
2019-04-30T17:20:29.165Z,19.30
2019-04-30T17:22:59.379Z,19.20
2019-04-30T17:25:27.761Z,19.10
2019-04-30T17:27:56.216Z,19.10
2019-04-30T17:30:24.728Z,19.10
2019-04-30T17:32:53.193Z,19.10
2019-04-30T17:35:21.618Z,19.00
2019-04-30T17:37:50.050Z,19.00
2019-04-30T17:40:19.251Z,19.00
2019-04-30T17:42:47.772Z,19.00
2019-04-30T17:45:16.432Z,18.90
2019-04-30T17:47:44.885Z,18.80
2019-04-30T17:50:13.438Z,18.70
2019-04-30T17:52:41.889Z,18.60
2019-04-30T17:55:11.041Z,18.50
2019-04-30T17:57:40.330Z,18.40
2019-04-30T18:00:18.742Z,18.30
2019-04-30T18:02:41.040Z,18.20
2019-04-30T18:05:11.408Z,18.10
2019-04-30T18:07:40.028Z,17.90
2019-04-30T18:10:10.698Z,17.80
2019-04-30T18:12:39.278Z,17.80
2019-04-30T18:15:12.455Z,17.70
2019-04-30T18:17:41.830Z,17.60
2019-04-30T18:20:20.870Z,17.50
2019-04-30T18:23:00.001Z,17.50
2019-04-30T18:25:30.059Z,17.40
2019-04-30T18:28:02.723Z,17.30
2019-04-30T18:30:39.102Z,17.20
2019-04-30T18:33:09.714Z,17.10
2019-04-30T18:35:38.784Z,17.00
2019-04-30T18:38:09.617Z,16.90
2019-04-30T18:40:39.534Z,16.80
2019-04-30T18:43:07.719Z,16.70
2019-04-30T18:45:36.210Z,16.60
2019-04-30T18:48:04.785Z,16.50
2019-04-30T18:50:33.215Z,16.40
2019-04-30T18:53:03.280Z,16.40
2019-04-30T18:55:31.703Z,16.30
2019-04-30T18:58:01.477Z,16.20
2019-04-30T19:00:31.675Z,16.10
2019-04-30T19:03:00.111Z,16.10
2019-04-30T19:05:29.373Z,16.00
2019-04-30T19:08:00.343Z,15.90
2019-04-30T19:10:30.454Z,15.90
2019-04-30T19:13:02.923Z,15.80
2019-04-30T19:16:08.834Z,15.70
2019-04-30T19:18:07.718Z,15.60
2019-04-30T19:20:38.567Z,15.50
2019-04-30T19:23:09.995Z,15.50
2019-04-30T19:25:38.628Z,15.40
2019-04-30T19:28:12.115Z,15.40
2019-04-30T19:30:38.892Z,15.40
2019-04-30T19:33:08.657Z,15.30
2019-04-30T19:35:37.229Z,15.20
2019-04-30T19:38:05.663Z,15.10
2019-04-30T19:40:34.091Z,15.00
2019-04-30T19:43:02.515Z,15.00
2019-04-30T19:45:30.943Z,15.00
2019-04-30T19:47:59.369Z,14.90
2019-04-30T19:50:27.799Z,14.90
2019-04-30T19:52:56.258Z,14.90
2019-04-30T19:55:24.681Z,14.80
2019-04-30T19:57:53.115Z,14.70
2019-04-30T20:00:22.096Z,14.60
2019-04-30T20:02:50.541Z,14.60
2019-04-30T20:05:19.497Z,14.60
2019-04-30T20:07:49.318Z,14.60
2019-04-30T20:10:19.503Z,14.60
2019-04-30T20:12:49.763Z,14.60
2019-04-30T20:15:21.719Z,14.60
2019-04-30T20:17:49.882Z,14.60
2019-04-30T20:20:18.963Z,14.50
2019-04-30T20:22:47.441Z,14.40
2019-04-30T20:25:15.874Z,14.40
2019-04-30T20:27:44.295Z,14.40
2019-04-30T20:30:12.883Z,14.30
2019-04-30T20:32:41.306Z,14.30
2019-04-30T20:35:09.901Z,14.40
2019-04-30T20:37:56.190Z,14.30
2019-04-30T20:40:26.514Z,14.40
2019-04-30T20:42:54.927Z,14.40
2019-04-30T20:45:23.373Z,14.40
2019-04-30T20:47:51.931Z,14.40
2019-04-30T20:50:20.761Z,14.50
2019-04-30T20:53:02.421Z,14.60
2019-04-30T20:55:49.514Z,14.60
2019-04-30T21:01:06.850Z,14.50
2019-04-30T21:03:35.428Z,14.60
2019-04-30T21:06:03.879Z,14.70
2019-04-30T21:08:32.300Z,14.70
2019-04-30T21:11:00.730Z,14.80
2019-04-30T21:13:29.529Z,14.80
2019-04-30T21:15:59.522Z,14.80
2019-04-30T21:20:59.603Z,14.70
2019-04-30T21:23:29.246Z,14.70
2019-04-30T21:25:58.989Z,14.70
2019-04-30T21:28:29.524Z,14.70
2019-04-30T21:30:59.382Z,14.60
2019-04-30T21:33:35.499Z,14.60
2019-04-30T21:34:41.277Z,14.70
2019-04-30T21:36:05.689Z,14.60
2019-04-30T21:38:34.222Z,14.60
2019-04-30T21:41:02.659Z,14.70
2019-04-30T21:43:31.168Z,14.70
2019-04-30T21:45:59.644Z,14.70
2019-04-30T21:48:28.749Z,14.70
2019-04-30T21:50:59.204Z,14.70
2019-04-30T21:53:29.341Z,14.60
2019-04-30T21:55:57.647Z,14.60
2019-04-30T21:58:26.106Z,14.50
2019-04-30T22:01:07.906Z,14.40
2019-04-30T22:03:36.363Z,14.40
2019-04-30T22:06:04.881Z,14.30
2019-04-30T22:08:33.352Z,14.30
2019-04-30T22:11:01.832Z,14.20
2019-04-30T22:13:30.312Z,14.10
2019-04-30T22:15:58.825Z,14.10
2019-04-30T22:18:27.287Z,14.10
2019-04-30T22:20:56.059Z,14.00
2019-04-30T22:23:24.576Z,14.10
2019-04-30T22:25:53.011Z,14.10
2019-04-30T22:28:21.459Z,14.10
2019-04-30T22:30:50.533Z,14.20
2019-04-30T22:33:19.464Z,14.30
2019-04-30T22:35:49.540Z,14.40
2019-04-30T22:38:39.033Z,14.30
2019-04-30T22:41:08.846Z,14.30
2019-04-30T22:43:37.457Z,14.10
2019-04-30T22:46:13.653Z,14.10
2019-04-30T22:48:42.181Z,14.00
2019-04-30T22:51:10.616Z,14.10
2019-04-30T22:53:39.068Z,14.10
2019-04-30T22:56:07.490Z,14.00
2019-04-30T22:58:35.935Z,13.90
2019-04-30T23:01:11.844Z,13.90
2019-04-30T23:03:40.451Z,13.90
2019-04-30T23:06:08.882Z,13.70
2019-04-30T23:08:37.325Z,13.60
2019-04-30T23:11:05.755Z,13.60
2019-04-30T23:13:34.386Z,13.60
2019-04-30T23:16:03.150Z,13.70
2019-04-30T23:18:32.216Z,13.60
2019-04-30T23:21:00.768Z,13.60
2019-04-30T23:23:29.217Z,13.70
2019-04-30T23:25:57.646Z,13.60
2019-04-30T23:28:26.103Z,13.80
2019-04-30T23:30:54.567Z,13.70
2019-04-30T23:33:23.082Z,13.80
2019-04-30T23:35:51.639Z,13.90
2019-04-30T23:38:20.074Z,13.90
2019-04-30T23:40:52.028Z,13.90
2019-04-30T23:43:20.698Z,14.00
2019-04-30T23:45:49.280Z,14.00
2019-04-30T23:48:17.784Z,14.10
2019-04-30T23:50:48.044Z,13.90
2019-04-30T23:53:16.496Z,13.90
2019-04-30T23:55:45.085Z,13.90
2019-04-30T23:58:13.786Z,13.80
